createdAt,value
2023-02-27T00:02:23.857Z,7.13
2023-02-27T00:04:50.596Z,7.11
2023-02-27T00:07:17.864Z,7.06
2023-02-27T00:09:44.632Z,7.01
2023-02-27T00:12:12.096Z,6.96
2023-02-27T00:14:38.793Z,6.90
2023-02-27T00:17:05.404Z,6.84
2023-02-27T00:19:32.099Z,6.72
2023-02-27T00:21:58.701Z,6.63
2023-02-27T00:24:25.463Z,6.54
2023-02-27T00:26:52.108Z,6.49
2023-02-27T00:29:20.921Z,6.49
2023-02-27T00:31:51.627Z,6.49
2023-02-27T00:34:18.580Z,6.55
2023-02-27T00:36:45.262Z,6.61
2023-02-27T00:39:11.926Z,6.65
2023-02-27T00:41:38.594Z,6.64
2023-02-27T00:44:05.640Z,6.64
2023-02-27T00:46:32.292Z,6.65
2023-02-27T00:48:58.968Z,6.61
2023-02-27T00:51:27.262Z,6.57
2023-02-27T00:53:54.277Z,6.54
2023-02-27T00:56:20.916Z,6.51
2023-02-27T00:58:47.778Z,6.51
2023-02-27T01:01:15.467Z,6.48
2023-02-27T01:03:42.692Z,6.45
2023-02-27T01:06:10.768Z,6.44
2023-02-27T01:08:37.385Z,6.40
2023-02-27T01:11:05.097Z,6.40
2023-02-27T01:13:32.205Z,6.45
2023-02-27T01:15:58.876Z,6.53
2023-02-27T01:18:25.494Z,6.60
2023-02-27T01:20:53.751Z,6.67
2023-02-27T01:23:20.828Z,6.74
2023-02-27T01:25:49.917Z,6.80
2023-02-27T01:28:17.104Z,6.86
2023-02-27T01:30:44.990Z,6.90
2023-02-27T01:33:14.535Z,6.94
2023-02-27T01:35:41.341Z,6.98
2023-02-27T01:38:08.141Z,7.00
2023-02-27T01:40:38.270Z,7.01
2023-02-27T01:43:06.512Z,7.00
2023-02-27T01:45:35.545Z,7.03
2023-02-27T01:48:08.037Z,7.09
2023-02-27T01:50:38.274Z,7.14
2023-02-27T01:53:07.061Z,7.18
2023-02-27T01:55:38.046Z,7.18
2023-02-27T01:58:08.248Z,7.18
2023-02-27T02:00:35.981Z,7.21
2023-02-27T02:03:13.296Z,7.22
2023-02-27T02:05:42.490Z,7.22
2023-02-27T02:08:09.942Z,7.21
2023-02-27T02:10:36.927Z,7.21
2023-02-27T02:13:04.943Z,7.21
2023-02-27T02:15:39.466Z,7.21
2023-02-27T02:18:29.659Z,7.19
2023-02-27T02:21:12.170Z,7.19
2023-02-27T02:24:15.907Z,7.18
2023-02-27T02:26:51.228Z,7.21
2023-02-27T02:29:25.985Z,7.24
2023-02-27T02:32:12.937Z,7.26
2023-02-27T02:35:03.636Z,7.27
2023-02-27T02:37:33.229Z,7.28
2023-02-27T02:40:16.677Z,7.29
2023-02-27T02:43:14.305Z,7.32
2023-02-27T02:46:02.399Z,7.32
2023-02-27T02:48:41.530Z,7.32
2023-02-27T02:51:22.539Z,7.32
2023-02-27T02:53:55.911Z,7.32
2023-02-27T02:57:04.488Z,7.33
2023-02-27T02:59:58.229Z,7.33
2023-02-27T03:02:30.573Z,7.34
2023-02-27T03:05:11.033Z,7.32
2023-02-27T03:07:47.805Z,7.30
2023-02-27T03:10:32.640Z,7.29
2023-02-27T03:13:05.383Z,7.28
2023-02-27T03:15:45.182Z,7.28
2023-02-27T03:18:22.526Z,7.26
2023-02-27T03:20:57.295Z,7.23
2023-02-27T03:23:30.314Z,7.21
2023-02-27T03:25:58.619Z,7.20
2023-02-27T03:28:32.643Z,7.19
2023-02-27T03:31:17.891Z,7.19
2023-02-27T03:34:01.754Z,7.20
2023-02-27T03:36:44.252Z,7.20
2023-02-27T03:39:15.024Z,7.17
2023-02-27T03:41:50.034Z,7.15
2023-02-27T03:44:58.695Z,7.13
2023-02-27T03:47:25.658Z,7.13
2023-02-27T03:49:52.985Z,7.13
2023-02-27T03:52:21.265Z,7.14
2023-02-27T03:54:55.678Z,7.15
2023-02-27T03:57:22.784Z,7.15
2023-02-27T03:59:49.777Z,7.16
2023-02-27T04:02:17.652Z,7.15
2023-02-27T04:04:44.527Z,7.14
2023-02-27T04:07:29.990Z,7.13
2023-02-27T04:10:10.259Z,7.10
2023-02-27T04:13:00.362Z,7.10
2023-02-27T04:15:42.114Z,7.12
2023-02-27T04:18:27.241Z,7.13
2023-02-27T04:20:58.284Z,7.12
2023-02-27T04:23:52.908Z,7.10
2023-02-27T04:26:29.489Z,7.08
2023-02-27T04:29:15.130Z,7.07
2023-02-27T04:31:57.340Z,7.04
2023-02-27T04:34:29.320Z,7.01
2023-02-27T04:37:22.602Z,7.00
2023-02-27T04:39:54.948Z,6.97
2023-02-27T04:42:25.934Z,6.93
2023-02-27T04:44:58.011Z,6.91
2023-02-27T04:47:28.633Z,6.89
2023-02-27T04:50:01.140Z,6.90
2023-02-27T04:52:33.580Z,6.90
2023-02-27T04:55:08.328Z,6.91
2023-02-27T04:57:41.322Z,6.91
2023-02-27T05:00:12.098Z,6.90
2023-02-27T05:02:45.411Z,6.90
2023-02-27T05:05:16.560Z,6.89
2023-02-27T05:07:51.453Z,6.90
2023-02-27T05:10:24.027Z,6.89
2023-02-27T05:12:59.608Z,6.90
2023-02-27T05:15:32.872Z,6.90
2023-02-27T05:18:06.181Z,6.88
2023-02-27T05:20:51.996Z,6.85
2023-02-27T05:23:58.418Z,6.82
2023-02-27T05:26:30.897Z,6.82
2023-02-27T05:29:17.433Z,6.81
2023-02-27T05:31:54.184Z,6.81
2023-02-27T05:34:29.539Z,6.82
2023-02-27T05:37:05.599Z,6.81
2023-02-27T05:39:36.414Z,6.80
2023-02-27T05:42:14.142Z,6.77
2023-02-27T05:44:47.709Z,6.74
2023-02-27T05:47:20.986Z,6.76
2023-02-27T05:49:53.240Z,6.77
2023-02-27T05:52:24.649Z,6.78
2023-02-27T05:55:04.490Z,6.78
2023-02-27T05:57:39.088Z,6.79
2023-02-27T06:00:23.790Z,6.82
2023-02-27T06:02:50.516Z,6.88
2023-02-27T06:05:19.168Z,6.94
2023-02-27T06:07:46.409Z,6.98
2023-02-27T06:10:20.621Z,7.01
2023-02-27T06:12:47.668Z,7.06
2023-02-27T06:15:14.615Z,7.09
2023-02-27T06:17:41.345Z,7.11
2023-02-27T06:20:08.223Z,7.13
2023-02-27T06:22:35.841Z,7.13
2023-02-27T06:25:03.121Z,7.16
2023-02-27T06:27:29.934Z,7.17
2023-02-27T06:29:57.702Z,7.17
2023-02-27T06:32:25.907Z,7.18
2023-02-27T06:34:53.574Z,7.19
2023-02-27T06:37:21.801Z,7.19
2023-02-27T06:39:48.587Z,7.20
2023-02-27T06:42:15.804Z,7.20
2023-02-27T06:44:42.816Z,7.20
2023-02-27T06:47:09.812Z,7.20
2023-02-27T06:49:36.655Z,7.18
2023-02-27T06:52:03.638Z,7.17
2023-02-27T06:54:30.429Z,7.20
2023-02-27T06:56:57.140Z,7.22
2023-02-27T06:59:23.848Z,7.24
2023-02-27T07:01:50.698Z,7.22
2023-02-27T07:04:17.665Z,7.23
2023-02-27T07:07:35.269Z,7.24
2023-02-27T07:09:31.726Z,7.25
2023-02-27T07:11:58.528Z,7.26
2023-02-27T07:14:25.768Z,7.29
2023-02-27T07:16:55.446Z,7.32
2023-02-27T07:19:24.262Z,7.35
2023-02-27T07:21:51.175Z,7.33
2023-02-27T07:24:18.024Z,7.32
2023-02-27T07:26:45.050Z,7.33
2023-02-27T07:29:12.085Z,7.32
2023-02-27T07:31:38.826Z,7.32
2023-02-27T07:34:05.976Z,7.34
2023-02-27T07:36:33.968Z,7.34
2023-02-27T07:39:00.784Z,7.32
2023-02-27T07:41:30.593Z,7.29
2023-02-27T07:44:00.371Z,7.27
2023-02-27T07:46:27.930Z,7.26
2023-02-27T07:48:55.243Z,7.24
2023-02-27T07:51:22.225Z,7.25
2023-02-27T07:53:48.954Z,7.26
2023-02-27T07:56:15.740Z,7.28
2023-02-27T07:58:42.595Z,7.31
2023-02-27T08:01:09.283Z,7.37
2023-02-27T08:03:35.844Z,7.38
2023-02-27T08:06:02.641Z,7.38
2023-02-27T08:08:29.852Z,7.38
2023-02-27T08:10:56.609Z,7.41
2023-02-27T08:13:42.237Z,7.46
2023-02-27T08:16:10.323Z,7.49
2023-02-27T08:18:37.081Z,7.51
2023-02-27T08:21:05.164Z,7.54
2023-02-27T08:23:34.605Z,7.57
2023-02-27T08:26:02.419Z,7.63
2023-02-27T08:28:29.267Z,7.68
2023-02-27T08:30:56.509Z,7.73
2023-02-27T08:33:24.802Z,7.80
2023-02-27T08:35:51.962Z,7.80
2023-02-27T08:38:18.670Z,7.82
2023-02-27T08:40:45.398Z,7.86
2023-02-27T08:43:12.090Z,7.91
2023-02-27T08:45:38.771Z,7.94
2023-02-27T08:48:05.679Z,7.98
2023-02-27T08:50:32.648Z,8.01
2023-02-27T08:52:59.314Z,8.05
2023-02-27T08:55:26.041Z,8.12
2023-02-27T08:57:52.878Z,8.16
2023-02-27T09:00:20.337Z,8.22
2023-02-27T09:02:47.129Z,8.26
2023-02-27T09:05:13.910Z,8.32
2023-02-27T09:07:42.085Z,8.37
2023-02-27T09:10:09.750Z,8.40
2023-02-27T09:12:36.650Z,8.45
2023-02-27T09:15:03.853Z,8.50
2023-02-27T09:17:30.584Z,8.55
2023-02-27T09:19:57.572Z,8.59
2023-02-27T09:22:24.541Z,8.64
2023-02-27T09:24:51.458Z,8.71
2023-02-27T09:27:18.179Z,8.79
2023-02-27T09:29:44.869Z,8.87
2023-02-27T09:32:12.482Z,8.95
2023-02-27T09:34:39.338Z,9.04
2023-02-27T09:37:06.050Z,9.11
2023-02-27T09:39:32.874Z,9.20
2023-02-27T09:42:17.182Z,9.26
2023-02-27T09:44:47.867Z,9.32
2023-02-27T09:47:18.249Z,9.37
2023-02-27T09:49:54.197Z,9.41
2023-02-27T09:52:21.064Z,9.46
2023-02-27T09:54:49.062Z,9.48
2023-02-27T09:57:23.104Z,9.52
2023-02-27T10:00:00.370Z,9.58
2023-02-27T10:02:44.352Z,9.67
2023-02-27T10:05:36.092Z,9.70
2023-02-27T10:08:17.419Z,9.69
2023-02-27T10:11:00.252Z,9.70
2023-02-27T10:13:55.826Z,9.75
2023-02-27T10:16:23.236Z,9.82
2023-02-27T10:19:04.691Z,9.92
2023-02-27T10:21:36.816Z,10.06
2023-02-27T10:24:07.757Z,10.16
2023-02-27T10:26:39.809Z,10.17
2023-02-27T10:29:24.745Z,10.21
2023-02-27T10:32:00.702Z,10.32
2023-02-27T10:34:30.117Z,10.42
2023-02-27T10:37:00.769Z,10.46
2023-02-27T10:39:29.606Z,10.50
2023-02-27T10:42:07.875Z,10.52
2023-02-27T10:44:34.665Z,10.53
2023-02-27T10:47:01.422Z,10.56
2023-02-27T10:49:32.252Z,10.61
2023-02-27T10:52:10.741Z,10.64
2023-02-27T10:54:38.532Z,10.71
2023-02-27T10:57:19.752Z,10.74
2023-02-27T10:59:53.769Z,10.70
2023-02-27T11:02:25.877Z,10.63
2023-02-27T11:04:58.672Z,10.54
2023-02-27T11:07:42.143Z,10.60
2023-02-27T11:10:15.134Z,10.61
2023-02-27T11:12:56.424Z,10.66
2023-02-27T11:15:26.687Z,10.70
2023-02-27T11:17:55.129Z,10.71
2023-02-27T11:20:36.195Z,10.71
2023-02-27T11:23:15.724Z,10.69
2023-02-27T11:25:43.336Z,10.69
2023-02-27T11:28:26.674Z,10.74
2023-02-27T11:31:15.979Z,10.74
2023-02-27T11:33:56.119Z,10.68
2023-02-27T11:36:23.843Z,10.68
2023-02-27T11:38:53.240Z,10.66
2023-02-27T11:41:29.960Z,10.62
2023-02-27T11:43:59.237Z,10.59
2023-02-27T11:46:46.911Z,10.59
2023-02-27T11:49:19.355Z,10.63
2023-02-27T11:51:54.792Z,10.65
2023-02-27T11:54:35.341Z,10.67
2023-02-27T11:57:09.155Z,10.75
2023-02-27T11:59:58.646Z,10.85
2023-02-27T12:02:34.742Z,10.90
2023-02-27T12:05:21.497Z,10.95
2023-02-27T12:07:57.351Z,11.00
2023-02-27T12:10:30.960Z,10.99
2023-02-27T12:13:05.167Z,10.98
2023-02-27T12:15:42.030Z,11.00
2023-02-27T12:18:16.238Z,11.00
2023-02-27T12:20:55.176Z,11.01
2023-02-27T12:23:47.080Z,11.01
2023-02-27T12:26:31.887Z,11.05
2023-02-27T12:29:03.401Z,11.08
2023-02-27T12:31:44.936Z,11.12
2023-02-27T12:34:20.245Z,11.15
2023-02-27T12:36:48.809Z,11.16
2023-02-27T12:39:19.414Z,11.19
2023-02-27T12:42:07.403Z,11.26
2023-02-27T12:44:57.013Z,11.33
2023-02-27T12:47:41.649Z,11.36
2023-02-27T12:50:11.635Z,11.38
2023-02-27T12:53:02.501Z,11.37
2023-02-27T12:55:33.307Z,11.40
2023-02-27T12:58:18.327Z,11.44
2023-02-27T13:01:06.001Z,11.46
2023-02-27T13:03:43.969Z,11.49
2023-02-27T13:06:13.322Z,11.51
2023-02-27T13:09:05.491Z,11.51
2023-02-27T13:11:52.269Z,11.50
2023-02-27T13:14:31.440Z,11.47
2023-02-27T13:17:12.029Z,11.43
2023-02-27T13:20:04.845Z,11.39
2023-02-27T13:22:52.691Z,11.33
2023-02-27T13:25:20.654Z,11.29
2023-02-27T13:28:02.419Z,11.26
2023-02-27T13:30:39.840Z,11.24
2023-02-27T13:33:21.028Z,11.25
2023-02-27T13:36:13.014Z,11.31
2023-02-27T13:38:50.559Z,11.37
2023-02-27T13:41:20.369Z,11.40
2023-02-27T13:44:01.392Z,11.38
2023-02-27T13:46:30.086Z,11.31
2023-02-27T13:49:05.939Z,11.29
2023-02-27T13:51:35.635Z,11.24
2023-02-27T13:54:14.634Z,11.19
2023-02-27T13:56:47.305Z,11.14
2023-02-27T13:59:33.628Z,11.08
2023-02-27T14:02:21.702Z,11.01
2023-02-27T14:04:51.611Z,10.97
2023-02-27T14:07:23.709Z,10.91
2023-02-27T14:10:19.524Z,10.87
2023-02-27T14:12:46.844Z,10.81
2023-02-27T14:15:22.731Z,10.78
2023-02-27T14:18:05.771Z,10.76
2023-02-27T14:20:41.165Z,10.75
2023-02-27T14:23:17.093Z,10.73
2023-02-27T14:25:49.919Z,10.71
2023-02-27T14:28:34.847Z,10.69
2023-02-27T14:31:03.244Z,10.67
2023-02-27T14:33:48.567Z,10.66
2023-02-27T14:36:20.539Z,10.66
2023-02-27T14:38:47.644Z,10.63
2023-02-27T14:41:35.889Z,10.64
2023-02-27T14:44:03.151Z,10.65
2023-02-27T14:46:32.325Z,10.64
2023-02-27T14:49:06.314Z,10.64
2023-02-27T14:51:36.048Z,10.65
2023-02-27T14:54:13.327Z,10.61
2023-02-27T14:56:40.970Z,10.60
2023-02-27T14:59:24.247Z,10.59
2023-02-27T15:01:53.005Z,10.59
2023-02-27T15:04:22.411Z,10.59
2023-02-27T15:06:51.511Z,10.62
2023-02-27T15:09:25.696Z,10.62
2023-02-27T15:12:03.595Z,10.61
2023-02-27T15:14:36.821Z,10.58
2023-02-27T15:17:14.069Z,10.52
2023-02-27T15:19:52.969Z,10.50
2023-02-27T15:22:38.499Z,10.44
2023-02-27T15:25:08.128Z,10.41
2023-02-27T15:27:37.380Z,10.40
2023-02-27T15:30:05.025Z,10.33
2023-02-27T15:32:35.479Z,10.25
2023-02-27T15:35:18.922Z,10.29
2023-02-27T15:37:53.057Z,10.31
2023-02-27T15:40:29.617Z,10.34
2023-02-27T15:42:58.237Z,10.32
2023-02-27T15:45:28.824Z,10.27
2023-02-27T15:47:55.724Z,10.23
2023-02-27T15:50:31.485Z,10.17
2023-02-27T15:53:07.462Z,10.14
2023-02-27T15:56:04.452Z,10.11
2023-02-27T15:58:35.187Z,10.10
2023-02-27T16:01:08.600Z,10.08
2023-02-27T16:03:44.072Z,10.07
2023-02-27T16:06:16.144Z,10.04
2023-02-27T16:09:03.099Z,10.02
2023-02-27T16:11:35.919Z,10.02
2023-02-27T16:14:04.178Z,10.04
2023-02-27T16:16:36.096Z,10.03
2023-02-27T16:19:26.962Z,9.99
2023-02-27T16:22:13.658Z,9.96
2023-02-27T16:24:40.647Z,9.96
2023-02-27T16:27:25.921Z,9.97
2023-02-27T16:30:02.496Z,9.95
2023-02-27T16:32:42.269Z,9.92
2023-02-27T16:35:18.085Z,9.89
2023-02-27T16:37:46.306Z,9.84
2023-02-27T16:40:25.017Z,9.80
2023-02-27T16:42:52.036Z,9.76
2023-02-27T16:45:21.788Z,9.74
2023-02-27T16:47:50.142Z,9.68
2023-02-27T16:50:22.022Z,9.62
2023-02-27T16:52:48.716Z,9.57
2023-02-27T16:55:15.479Z,9.53
2023-02-27T16:57:42.072Z,9.50
2023-02-27T17:00:13.213Z,9.47
2023-02-27T17:02:39.887Z,9.45
2023-02-27T17:05:06.692Z,9.39
2023-02-27T17:07:33.565Z,9.32
2023-02-27T17:10:00.436Z,9.25
2023-02-27T17:12:27.436Z,9.22
2023-02-27T17:14:54.285Z,9.21
2023-02-27T17:17:20.933Z,9.21
2023-02-27T17:19:47.572Z,9.17
2023-02-27T17:22:15.242Z,9.13
2023-02-27T17:24:41.981Z,9.10
2023-02-27T17:27:09.421Z,9.07
2023-02-27T17:29:38.561Z,9.02
2023-02-27T17:32:05.814Z,8.97
2023-02-27T17:34:32.573Z,8.92
2023-02-27T17:36:59.133Z,8.91
2023-02-27T17:39:26.021Z,8.87
2023-02-27T17:41:54.386Z,8.84
2023-02-27T17:44:21.416Z,8.80
2023-02-27T17:46:48.258Z,8.74
2023-02-27T17:49:15.272Z,8.67
2023-02-27T17:51:42.068Z,8.61
2023-02-27T17:54:08.842Z,8.56
2023-02-27T17:56:37.032Z,8.47
2023-02-27T17:59:04.728Z,8.39
2023-02-27T18:01:32.676Z,8.36
2023-02-27T18:03:59.550Z,8.32
2023-02-27T18:06:26.539Z,8.27
2023-02-27T18:08:53.459Z,8.21
2023-02-27T18:11:21.160Z,8.18
2023-02-27T18:13:48.984Z,8.10
2023-02-27T18:16:15.812Z,8.01
2023-02-27T18:18:43.351Z,7.94
2023-02-27T18:21:16.535Z,7.89
2023-02-27T18:23:44.196Z,7.88
2023-02-27T18:26:28.953Z,7.86
2023-02-27T18:29:01.553Z,7.83
2023-02-27T18:31:34.791Z,7.80
2023-02-27T18:34:02.539Z,7.76
2023-02-27T18:36:30.711Z,7.70
2023-02-27T18:38:58.102Z,7.68
2023-02-27T18:41:24.939Z,7.66
2023-02-27T18:43:52.042Z,7.64
2023-02-27T18:46:19.103Z,7.65
2023-02-27T18:48:46.822Z,7.71
2023-02-27T18:51:15.594Z,7.77
2023-02-27T18:53:44.375Z,7.79
2023-02-27T18:56:12.336Z,7.81
2023-02-27T18:58:39.487Z,7.79
2023-02-27T19:01:07.549Z,7.77
2023-02-27T19:03:36.063Z,7.72
2023-02-27T19:06:03.586Z,7.70
2023-02-27T19:08:31.844Z,7.71
2023-02-27T19:10:59.351Z,7.70
2023-02-27T19:13:26.694Z,7.73
2023-02-27T19:15:54.300Z,7.76
2023-02-27T19:18:21.203Z,7.80
2023-02-27T19:20:48.142Z,7.82
2023-02-27T19:23:14.924Z,7.83
2023-02-27T19:25:42.148Z,7.84
2023-02-27T19:28:11.346Z,7.81
2023-02-27T19:30:39.792Z,7.80
2023-02-27T19:33:07.058Z,7.80
2023-02-27T19:35:33.810Z,7.79
2023-02-27T19:38:00.486Z,7.80
2023-02-27T19:40:28.283Z,7.81
2023-02-27T19:42:55.566Z,7.80
2023-02-27T19:45:23.330Z,7.79
2023-02-27T19:47:50.136Z,7.78
2023-02-27T19:50:17.226Z,7.78
2023-02-27T19:52:44.020Z,7.78
2023-02-27T19:55:11.232Z,7.78
2023-02-27T19:57:38.000Z,7.78
2023-02-27T20:00:07.483Z,7.78
2023-02-27T20:02:42.323Z,7.79
2023-02-27T20:05:12.151Z,7.81
2023-02-27T20:07:40.671Z,7.80
2023-02-27T20:10:07.635Z,7.82
2023-02-27T20:12:34.613Z,7.82
2023-02-27T20:15:08.253Z,7.82
2023-02-27T20:17:35.443Z,7.82
2023-02-27T20:20:04.910Z,7.81
2023-02-27T20:22:32.909Z,7.84
2023-02-27T20:25:00.216Z,7.85
2023-02-27T20:27:27.522Z,7.86
2023-02-27T20:29:56.039Z,7.86
2023-02-27T20:32:24.853Z,7.85
2023-02-27T20:34:53.682Z,7.83
2023-02-27T20:37:23.081Z,7.79
2023-02-27T20:39:50.611Z,7.76
2023-02-27T20:42:17.558Z,7.71
2023-02-27T20:44:44.395Z,7.67
2023-02-27T20:47:11.563Z,7.65
2023-02-27T20:49:39.310Z,7.63
2023-02-27T20:52:06.141Z,7.61
2023-02-27T20:54:32.986Z,7.59
2023-02-27T20:56:59.909Z,7.56
2023-02-27T20:59:27.128Z,7.54
2023-02-27T21:01:55.236Z,7.50
2023-02-27T21:04:42.537Z,7.49
2023-02-27T21:07:11.664Z,7.48
2023-02-27T21:09:38.757Z,7.49
2023-02-27T21:12:06.881Z,7.49
2023-02-27T21:14:34.134Z,7.49
2023-02-27T21:17:01.385Z,7.48
2023-02-27T21:19:28.315Z,7.45
2023-02-27T21:21:55.054Z,7.44
2023-02-27T21:24:21.822Z,7.44
2023-02-27T21:26:49.582Z,7.43
2023-02-27T21:29:19.819Z,7.43
2023-02-27T21:31:49.090Z,7.43
2023-02-27T21:34:19.003Z,7.43
2023-02-27T21:36:46.424Z,7.42
2023-02-27T21:39:20.291Z,7.41
2023-02-27T21:41:47.919Z,7.39
2023-02-27T21:44:16.981Z,7.40
2023-02-27T21:46:45.272Z,7.39
2023-02-27T21:49:23.466Z,7.38
2023-02-27T21:51:50.436Z,7.35
2023-02-27T21:54:18.134Z,7.30
2023-02-27T21:56:46.188Z,7.28
2023-02-27T21:59:14.000Z,7.23
2023-02-27T22:01:40.895Z,7.19
2023-02-27T22:04:07.905Z,7.19
2023-02-27T22:06:35.359Z,7.18
2023-02-27T22:09:05.129Z,7.18
2023-02-27T22:11:33.839Z,7.22
2023-02-27T22:14:00.734Z,7.25
2023-02-27T22:16:28.249Z,7.28
2023-02-27T22:18:55.184Z,7.26
2023-02-27T22:21:25.288Z,7.27
2023-02-27T22:23:53.176Z,7.28
2023-02-27T22:26:24.244Z,7.29
2023-02-27T22:28:52.054Z,7.26
2023-02-27T22:31:24.459Z,7.25
2023-02-27T22:33:54.471Z,7.25
2023-02-27T22:36:27.137Z,7.20
2023-02-27T22:38:53.872Z,7.12
2023-02-27T22:41:24.489Z,7.04
2023-02-27T22:43:51.882Z,6.97
2023-02-27T22:46:28.220Z,6.95
2023-02-27T22:48:56.886Z,6.90
2023-02-27T22:51:25.432Z,6.85
2023-02-27T22:53:52.163Z,6.82
2023-02-27T22:56:18.694Z,6.82
2023-02-27T22:58:45.841Z,6.79
2023-02-27T23:01:15.284Z,6.78
2023-02-27T23:03:43.453Z,6.78
2023-02-27T23:06:13.732Z,6.82
2023-02-27T23:08:41.113Z,6.85
2023-02-27T23:11:08.837Z,6.86
2023-02-27T23:13:35.797Z,6.84
2023-02-27T23:16:11.235Z,6.82
2023-02-27T23:18:43.430Z,6.81
2023-02-27T23:21:10.385Z,6.81
2023-02-27T23:23:37.290Z,6.84
2023-02-27T23:26:05.771Z,6.84
2023-02-27T23:28:34.657Z,6.85
2023-02-27T23:31:01.875Z,6.86
2023-02-27T23:33:30.399Z,6.90
2023-02-27T23:35:58.015Z,6.91
2023-02-27T23:38:26.092Z,6.93
2023-02-27T23:40:52.909Z,6.95
2023-02-27T23:43:20.505Z,6.92
2023-02-27T23:45:47.300Z,6.88
2023-02-27T23:48:14.539Z,6.90
2023-02-27T23:50:44.836Z,6.88
2023-02-27T23:53:13.613Z,6.84
2023-02-27T23:55:41.261Z,6.78
2023-02-27T23:58:09.731Z,6.76
